sensor_id;sensor_type;location;lat;lon;timestamp;temperature;humidity
59307;DHT22;47983;53.016;-2.260;2022-12-24T00:01:05;7.30;99.90
59307;DHT22;47983;53.016;-2.260;2022-12-24T00:03:35;7.40;99.90
59307;DHT22;47983;53.016;-2.260;2022-12-24T00:06:16;7.40;99.90
59307;DHT22;47983;53.016;-2.260;2022-12-24T00:08:44;7.40;99.90
59307;DHT22;47983;53.016;-2.260;2022-12-24T00:11:12;7.50;99.90
59307;DHT22;47983;53.016;-2.260;2022-12-24T00:13:39;7.50;99.90
59307;DHT22;47983;53.016;-2.260;2022-12-24T00:16:07;7.50;99.90
59307;DHT22;47983;53.016;-2.260;2022-12-24T00:18:35;7.40;99.90
59307;DHT22;47983;53.016;-2.260;2022-12-24T00:21:11;7.40;99.90
59307;DHT22;47983;53.016;-2.260;2022-12-24T00:23:39;7.40;99.90
59307;DHT22;47983;53.016;-2.260;2022-12-24T00:26:07;7.40;99.90
59307;DHT22;47983;53.016;-2.260;2022-12-24T00:28:35;7.40;99.90
59307;DHT22;47983;53.016;-2.260;2022-12-24T00:31:15;7.40;99.90
59307;DHT22;47983;53.016;-2.260;2022-12-24T00:33:45;7.40;99.90
59307;DHT22;47983;53.016;-2.260;2022-12-24T00:36:13;7.40;99.90
59307;DHT22;47983;53.016;-2.260;2022-12-24T00:38:41;7.30;99.90
59307;DHT22;47983;53.016;-2.260;2022-12-24T00:41:08;7.30;99.90
59307;DHT22;47983;53.016;-2.260;2022-12-24T00:43:55;7.20;99.90
59307;DHT22;47983;53.016;-2.260;2022-12-24T00:46:24;7.10;99.90
59307;DHT22;47983;53.016;-2.260;2022-12-24T00:48:52;7.10;99.90
59307;DHT22;47983;53.016;-2.260;2022-12-24T00:51:21;7.00;99.90
59307;DHT22;47983;53.016;-2.260;2022-12-24T00:53:49;7.00;99.90
59307;DHT22;47983;53.016;-2.260;2022-12-24T00:56:17;7.00;99.90
59307;DHT22;47983;53.016;-2.260;2022-12-24T00:58:45;6.90;99.90
59307;DHT22;47983;53.016;-2.260;2022-12-24T01:01:13;6.90;99.90
59307;DHT22;47983;53.016;-2.260;2022-12-24T01:03:41;6.90;99.90
59307;DHT22;47983;53.016;-2.260;2022-12-24T01:06:17;6.80;99.90
59307;DHT22;47983;53.016;-2.260;2022-12-24T01:08:45;6.70;99.90
59307;DHT22;47983;53.016;-2.260;2022-12-24T01:11:13;6.70;99.90
59307;DHT22;47983;53.016;-2.260;2022-12-24T01:13:40;6.70;99.90
59307;DHT22;47983;53.016;-2.260;2022-12-24T01:16:18;6.70;99.90
59307;DHT22;47983;53.016;-2.260;2022-12-24T01:18:47;6.70;99.90
59307;DHT22;47983;53.016;-2.260;2022-12-24T01:21:15;6.60;99.90
59307;DHT22;47983;53.016;-2.260;2022-12-24T01:23:43;6.70;99.90
59307;DHT22;47983;53.016;-2.260;2022-12-24T01:26:11;6.60;99.90
59307;DHT22;47983;53.016;-2.260;2022-12-24T01:28:39;6.60;99.90
59307;DHT22;47983;53.016;-2.260;2022-12-24T01:31:15;6.70;99.90
59307;DHT22;47983;53.016;-2.260;2022-12-24T01:33:44;6.70;99.90
59307;DHT22;47983;53.016;-2.260;2022-12-24T01:36:12;6.80;99.90
59307;DHT22;47983;53.016;-2.260;2022-12-24T01:38:40;6.70;99.90
59307;DHT22;47983;53.016;-2.260;2022-12-24T01:41:14;6.80;99.90
59307;DHT22;47983;53.016;-2.260;2022-12-24T01:44:20;6.80;99.90
59307;DHT22;47983;53.016;-2.260;2022-12-24T01:47:05;6.80;99.90
59307;DHT22;47983;53.016;-2.260;2022-12-24T01:49:34;6.80;99.90
59307;DHT22;47983;53.016;-2.260;2022-12-24T01:52:04;7.80;99.90
59307;DHT22;47983;53.016;-2.260;2022-12-24T01:54:51;6.80;99.90
59307;DHT22;47983;53.016;-2.260;2022-12-24T01:57:37;6.90;99.90
59307;DHT22;47983;53.016;-2.260;2022-12-24T02:00:09;6.80;99.90
59307;DHT22;47983;53.016;-2.260;2022-12-24T02:02:40;6.90;99.90
59307;DHT22;47983;53.016;-2.260;2022-12-24T02:08:15;6.90;99.90
59307;DHT22;47983;53.016;-2.260;2022-12-24T02:10:43;6.90;99.90
59307;DHT22;47983;53.016;-2.260;2022-12-24T02:13:13;6.90;99.90
59307;DHT22;47983;53.016;-2.260;2022-12-24T02:16:03;7.00;99.90
59307;DHT22;47983;53.016;-2.260;2022-12-24T02:18:48;7.00;99.90
59307;DHT22;47983;53.016;-2.260;2022-12-24T02:24:23;7.00;99.90
59307;DHT22;47983;53.016;-2.260;2022-12-24T02:30:11;7.00;99.90
59307;DHT22;47983;53.016;-2.260;2022-12-24T02:35:49;7.00;99.90
59307;DHT22;47983;53.016;-2.260;2022-12-24T02:41:14;6.90;99.90
59307;DHT22;47983;53.016;-2.260;2022-12-24T02:43:44;6.90;99.90
59307;DHT22;47983;53.016;-2.260;2022-12-24T02:46:19;6.90;99.90
59307;DHT22;47983;53.016;-2.260;2022-12-24T02:48:48;6.90;99.90
59307;DHT22;47983;53.016;-2.260;2022-12-24T02:51:22;7.00;99.90
59307;DHT22;47983;53.016;-2.260;2022-12-24T02:53:51;6.90;99.90
59307;DHT22;47983;53.016;-2.260;2022-12-24T03:07:25;6.70;99.90
59307;DHT22;47983;53.016;-2.260;2022-12-24T03:12:44;6.60;99.90
59307;DHT22;47983;53.016;-2.260;2022-12-24T03:15:15;6.50;99.90
59307;DHT22;47983;53.016;-2.260;2022-12-24T03:17:45;6.50;99.90
59307;DHT22;47983;53.016;-2.260;2022-12-24T03:20:19;6.50;99.90
59307;DHT22;47983;53.016;-2.260;2022-12-24T03:22:47;6.50;99.90
59307;DHT22;47983;53.016;-2.260;2022-12-24T03:25:15;6.50;99.90
59307;DHT22;47983;53.016;-2.260;2022-12-24T03:27:43;6.40;99.90
59307;DHT22;47983;53.016;-2.260;2022-12-24T03:30:13;6.40;99.90
59307;DHT22;47983;53.016;-2.260;2022-12-24T03:32:41;6.30;99.90
59307;DHT22;47983;53.016;-2.260;2022-12-24T03:35:09;6.30;99.90
59307;DHT22;47983;53.016;-2.260;2022-12-24T03:37:37;6.30;99.90
59307;DHT22;47983;53.016;-2.260;2022-12-24T03:40:06;6.40;99.90
59307;DHT22;47983;53.016;-2.260;2022-12-24T03:42:35;6.40;99.90
59307;DHT22;47983;53.016;-2.260;2022-12-24T03:45:03;6.40;99.90
59307;DHT22;47983;53.016;-2.260;2022-12-24T03:47:30;6.30;99.90
59307;DHT22;47983;53.016;-2.260;2022-12-24T03:49:58;6.30;99.90
59307;DHT22;47983;53.016;-2.260;2022-12-24T03:52:26;6.20;99.90
59307;DHT22;47983;53.016;-2.260;2022-12-24T03:54:53;6.20;99.90
59307;DHT22;47983;53.016;-2.260;2022-12-24T03:57:21;6.10;99.90
59307;DHT22;47983;53.016;-2.260;2022-12-24T03:59:49;5.90;99.90
59307;DHT22;47983;53.016;-2.260;2022-12-24T04:02:17;5.90;99.90
59307;DHT22;47983;53.016;-2.260;2022-12-24T04:04:45;5.80;99.90
59307;DHT22;47983;53.016;-2.260;2022-12-24T04:07:12;5.70;99.90
59307;DHT22;47983;53.016;-2.260;2022-12-24T04:09:40;5.70;99.90
59307;DHT22;47983;53.016;-2.260;2022-12-24T04:12:08;5.60;99.90
59307;DHT22;47983;53.016;-2.260;2022-12-24T04:14:35;5.50;99.90
59307;DHT22;47983;53.016;-2.260;2022-12-24T04:17:03;5.40;99.90
59307;DHT22;47983;53.016;-2.260;2022-12-24T04:19:31;5.30;99.90
59307;DHT22;47983;53.016;-2.260;2022-12-24T04:21:58;5.30;99.90
59307;DHT22;47983;53.016;-2.260;2022-12-24T04:24:26;5.20;99.90
59307;DHT22;47983;53.016;-2.260;2022-12-24T04:26:54;5.10;99.90
59307;DHT22;47983;53.016;-2.260;2022-12-24T04:29:21;5.00;99.90
59307;DHT22;47983;53.016;-2.260;2022-12-24T04:31:49;5.20;99.90
59307;DHT22;47983;53.016;-2.260;2022-12-24T04:34:16;4.90;99.90
59307;DHT22;47983;53.016;-2.260;2022-12-24T04:36:44;4.80;99.90
59307;DHT22;47983;53.016;-2.260;2022-12-24T04:39:12;4.70;99.90
59307;DHT22;47983;53.016;-2.260;2022-12-24T04:41:39;4.60;99.90
59307;DHT22;47983;53.016;-2.260;2022-12-24T04:44:07;4.60;99.90
59307;DHT22;47983;53.016;-2.260;2022-12-24T04:46:35;4.50;99.90
59307;DHT22;47983;53.016;-2.260;2022-12-24T04:49:03;4.40;99.90
59307;DHT22;47983;53.016;-2.260;2022-12-24T04:51:31;4.40;99.90
59307;DHT22;47983;53.016;-2.260;2022-12-24T04:53:58;4.40;99.90
59307;DHT22;47983;53.016;-2.260;2022-12-24T04:56:29;4.40;99.90
59307;DHT22;47983;53.016;-2.260;2022-12-24T04:59:00;4.40;99.90
59307;DHT22;47983;53.016;-2.260;2022-12-24T05:01:30;4.40;99.90
59307;DHT22;47983;53.016;-2.260;2022-12-24T05:03:58;4.40;99.90
59307;DHT22;47983;53.016;-2.260;2022-12-24T05:06:29;4.40;99.90
59307;DHT22;47983;53.016;-2.260;2022-12-24T05:08:58;4.40;99.90
59307;DHT22;47983;53.016;-2.260;2022-12-24T05:11:26;4.50;99.90
59307;DHT22;47983;53.016;-2.260;2022-12-24T05:13:54;4.50;99.90
59307;DHT22;47983;53.016;-2.260;2022-12-24T05:16:22;4.60;99.90
59307;DHT22;47983;53.016;-2.260;2022-12-24T05:18:50;4.70;99.90
59307;DHT22;47983;53.016;-2.260;2022-12-24T05:21:22;4.70;99.90
59307;DHT22;47983;53.016;-2.260;2022-12-24T05:23:50;4.80;99.90
59307;DHT22;47983;53.016;-2.260;2022-12-24T05:26:48;4.80;99.90
59307;DHT22;47983;53.016;-2.260;2022-12-24T05:29:16;4.90;99.90
59307;DHT22;47983;53.016;-2.260;2022-12-24T05:31:44;4.90;99.90
59307;DHT22;47983;53.016;-2.260;2022-12-24T05:34:14;4.90;99.90
59307;DHT22;47983;53.016;-2.260;2022-12-24T05:36:44;5.00;99.90
59307;DHT22;47983;53.016;-2.260;2022-12-24T05:39:15;5.00;99.90
59307;DHT22;47983;53.016;-2.260;2022-12-24T05:41:44;5.00;99.90
59307;DHT22;47983;53.016;-2.260;2022-12-24T05:44:12;5.00;99.90
59307;DHT22;47983;53.016;-2.260;2022-12-24T05:46:41;5.00;99.90
59307;DHT22;47983;53.016;-2.260;2022-12-24T05:49:09;4.90;99.90
59307;DHT22;47983;53.016;-2.260;2022-12-24T05:51:37;4.90;99.90
59307;DHT22;47983;53.016;-2.260;2022-12-24T05:54:06;4.80;99.90
59307;DHT22;47983;53.016;-2.260;2022-12-24T05:56:34;4.70;99.90
59307;DHT22;47983;53.016;-2.260;2022-12-24T05:59:02;4.70;99.90
59307;DHT22;47983;53.016;-2.260;2022-12-24T06:01:32;4.60;99.90
59307;DHT22;47983;53.016;-2.260;2022-12-24T06:04:00;4.60;99.90
59307;DHT22;47983;53.016;-2.260;2022-12-24T06:06:28;4.50;99.90
59307;DHT22;47983;53.016;-2.260;2022-12-24T06:08:56;4.40;99.90
59307;DHT22;47983;53.016;-2.260;2022-12-24T06:11:26;4.40;99.90
59307;DHT22;47983;53.016;-2.260;2022-12-24T06:13:53;4.30;99.90
59307;DHT22;47983;53.016;-2.260;2022-12-24T06:16:22;4.20;99.90
59307;DHT22;47983;53.016;-2.260;2022-12-24T06:18:51;4.30;99.90
59307;DHT22;47983;53.016;-2.260;2022-12-24T06:21:19;4.20;99.90
59307;DHT22;47983;53.016;-2.260;2022-12-24T06:23:47;4.20;99.90
59307;DHT22;47983;53.016;-2.260;2022-12-24T06:26:19;4.10;99.90
59307;DHT22;47983;53.016;-2.260;2022-12-24T06:28:48;4.10;99.90
59307;DHT22;47983;53.016;-2.260;2022-12-24T06:31:18;4.10;99.90
59307;DHT22;47983;53.016;-2.260;2022-12-24T06:33:46;4.10;99.90
59307;DHT22;47983;53.016;-2.260;2022-12-24T06:36:23;4.10;99.90
59307;DHT22;47983;53.016;-2.260;2022-12-24T06:38:53;4.10;99.90
59307;DHT22;47983;53.016;-2.260;2022-12-24T06:41:21;4.00;99.90
59307;DHT22;47983;53.016;-2.260;2022-12-24T06:43:51;4.00;99.90
59307;DHT22;47983;53.016;-2.260;2022-12-24T06:46:19;4.00;99.90
59307;DHT22;47983;53.016;-2.260;2022-12-24T06:48:47;3.90;99.90
59307;DHT22;47983;53.016;-2.260;2022-12-24T06:51:16;3.80;99.90
59307;DHT22;47983;53.016;-2.260;2022-12-24T06:53:50;3.80;99.90
59307;DHT22;47983;53.016;-2.260;2022-12-24T06:56:18;3.70;99.90
59307;DHT22;47983;53.016;-2.260;2022-12-24T06:58:47;3.70;99.90
59307;DHT22;47983;53.016;-2.260;2022-12-24T07:01:16;3.60;99.90
59307;DHT22;47983;53.016;-2.260;2022-12-24T07:03:46;3.60;99.90
59307;DHT22;47983;53.016;-2.260;2022-12-24T07:06:23;3.60;99.90
59307;DHT22;47983;53.016;-2.260;2022-12-24T07:08:51;3.70;99.90
59307;DHT22;47983;53.016;-2.260;2022-12-24T07:11:20;3.70;99.90
59307;DHT22;47983;53.016;-2.260;2022-12-24T07:13:48;3.70;99.90
59307;DHT22;47983;53.016;-2.260;2022-12-24T07:16:16;3.70;99.90
59307;DHT22;47983;53.016;-2.260;2022-12-24T07:18:44;3.60;99.90
59307;DHT22;47983;53.016;-2.260;2022-12-24T07:21:11;3.60;99.90
59307;DHT22;47983;53.016;-2.260;2022-12-24T07:23:39;3.70;99.90
59307;DHT22;47983;53.016;-2.260;2022-12-24T07:26:07;3.80;99.90
59307;DHT22;47983;53.016;-2.260;2022-12-24T07:28:35;4.00;99.90
59307;DHT22;47983;53.016;-2.260;2022-12-24T07:31:02;4.10;99.90
59307;DHT22;47983;53.016;-2.260;2022-12-24T07:33:30;4.20;99.90
59307;DHT22;47983;53.016;-2.260;2022-12-24T07:36:04;4.50;99.90
59307;DHT22;47983;53.016;-2.260;2022-12-24T07:38:33;4.50;99.90
59307;DHT22;47983;53.016;-2.260;2022-12-24T07:41:01;4.50;99.90
59307;DHT22;47983;53.016;-2.260;2022-12-24T07:43:32;4.60;99.90
59307;DHT22;47983;53.016;-2.260;2022-12-24T07:48:30;4.80;99.90
59307;DHT22;47983;53.016;-2.260;2022-12-24T07:50:59;4.80;99.90
59307;DHT22;47983;53.016;-2.260;2022-12-24T07:53:35;4.90;99.90
59307;DHT22;47983;53.016;-2.260;2022-12-24T07:56:03;4.90;99.90
59307;DHT22;47983;53.016;-2.260;2022-12-24T07:58:39;4.90;99.90
59307;DHT22;47983;53.016;-2.260;2022-12-24T08:01:08;4.90;99.90
59307;DHT22;47983;53.016;-2.260;2022-12-24T08:03:36;4.80;99.90
59307;DHT22;47983;53.016;-2.260;2022-12-24T08:06:07;4.80;99.90
59307;DHT22;47983;53.016;-2.260;2022-12-24T08:08:36;4.80;99.90
59307;DHT22;47983;53.016;-2.260;2022-12-24T08:11:05;4.70;99.90
59307;DHT22;47983;53.016;-2.260;2022-12-24T08:13:34;4.70;99.90
59307;DHT22;47983;53.016;-2.260;2022-12-24T08:16:02;4.60;99.90
59307;DHT22;47983;53.016;-2.260;2022-12-24T08:18:32;4.60;99.90
59307;DHT22;47983;53.016;-2.260;2022-12-24T08:21:00;4.50;99.90
59307;DHT22;47983;53.016;-2.260;2022-12-24T08:23:28;4.40;99.90
59307;DHT22;47983;53.016;-2.260;2022-12-24T08:25:56;4.40;99.90
59307;DHT22;47983;53.016;-2.260;2022-12-24T08:28:23;4.30;99.90
59307;DHT22;47983;53.016;-2.260;2022-12-24T08:30:51;5.00;99.90
59307;DHT22;47983;53.016;-2.260;2022-12-24T08:33:19;4.10;99.90
59307;DHT22;47983;53.016;-2.260;2022-12-24T08:35:51;3.90;99.90
59307;DHT22;47983;53.016;-2.260;2022-12-24T08:38:20;3.80;99.90
59307;DHT22;47983;53.016;-2.260;2022-12-24T08:40:49;3.70;99.90
59307;DHT22;47983;53.016;-2.260;2022-12-24T08:43:17;3.60;99.90
59307;DHT22;47983;53.016;-2.260;2022-12-24T08:45:46;3.60;99.90
59307;DHT22;47983;53.016;-2.260;2022-12-24T08:48:15;3.50;99.90
59307;DHT22;47983;53.016;-2.260;2022-12-24T08:50:43;3.40;99.90
59307;DHT22;47983;53.016;-2.260;2022-12-24T08:53:12;3.40;99.90
59307;DHT22;47983;53.016;-2.260;2022-12-24T08:58:08;3.30;99.90
59307;DHT22;47983;53.016;-2.260;2022-12-24T09:00:36;3.30;99.90
59307;DHT22;47983;53.016;-2.260;2022-12-24T09:03:04;3.30;99.90
59307;DHT22;47983;53.016;-2.260;2022-12-24T09:05:32;3.30;99.90
59307;DHT22;47983;53.016;-2.260;2022-12-24T09:08:00;3.40;99.90
59307;DHT22;47983;53.016;-2.260;2022-12-24T09:10:28;3.60;99.90
59307;DHT22;47983;53.016;-2.260;2022-12-24T09:15:24;3.60;99.90
59307;DHT22;47983;53.016;-2.260;2022-12-24T09:17:51;3.60;99.90
59307;DHT22;47983;53.016;-2.260;2022-12-24T09:20:19;3.70;99.90
59307;DHT22;47983;53.016;-2.260;2022-12-24T09:22:47;3.70;99.90
59307;DHT22;47983;53.016;-2.260;2022-12-24T09:25:14;3.80;99.90
59307;DHT22;47983;53.016;-2.260;2022-12-24T09:27:42;3.90;99.90
59307;DHT22;47983;53.016;-2.260;2022-12-24T09:30:10;4.00;99.90
59307;DHT22;47983;53.016;-2.260;2022-12-24T09:32:38;4.10;99.90
59307;DHT22;47983;53.016;-2.260;2022-12-24T09:35:06;4.10;99.90
59307;DHT22;47983;53.016;-2.260;2022-12-24T09:37:34;4.30;99.90
59307;DHT22;47983;53.016;-2.260;2022-12-24T09:40:05;4.40;99.90
59307;DHT22;47983;53.016;-2.260;2022-12-24T09:43:03;4.50;99.90
59307;DHT22;47983;53.016;-2.260;2022-12-24T09:45:39;4.60;99.90
59307;DHT22;47983;53.016;-2.260;2022-12-24T09:48:23;4.80;99.90
59307;DHT22;47983;53.016;-2.260;2022-12-24T09:51:07;4.80;99.90
59307;DHT22;47983;53.016;-2.260;2022-12-24T09:53:53;4.90;99.90
59307;DHT22;47983;53.016;-2.260;2022-12-24T09:56:27;5.00;99.90
59307;DHT22;47983;53.016;-2.260;2022-12-24T09:58:58;5.10;99.90
59307;DHT22;47983;53.016;-2.260;2022-12-24T10:01:29;5.20;99.90
59307;DHT22;47983;53.016;-2.260;2022-12-24T10:04:03;5.40;99.90
59307;DHT22;47983;53.016;-2.260;2022-12-24T10:06:38;5.50;99.90
59307;DHT22;47983;53.016;-2.260;2022-12-24T10:23:18;5.90;99.90
59307;DHT22;47983;53.016;-2.260;2022-12-24T10:26:22;5.90;99.90
59307;DHT22;47983;53.016;-2.260;2022-12-24T10:28:58;5.90;99.90
59307;DHT22;47983;53.016;-2.260;2022-12-24T10:31:35;6.00;99.90
59307;DHT22;47983;53.016;-2.260;2022-12-24T10:34:12;6.00;99.90
59307;DHT22;47983;53.016;-2.260;2022-12-24T10:36:41;6.10;99.90
59307;DHT22;47983;53.016;-2.260;2022-12-24T10:39:17;6.20;99.90
59307;DHT22;47983;53.016;-2.260;2022-12-24T10:41:50;6.30;99.90
59307;DHT22;47983;53.016;-2.260;2022-12-24T10:44:21;6.30;99.90
59307;DHT22;47983;53.016;-2.260;2022-12-24T10:46:50;6.40;99.90
59307;DHT22;47983;53.016;-2.260;2022-12-24T10:49:46;6.40;99.90
59307;DHT22;47983;53.016;-2.260;2022-12-24T10:52:19;6.50;99.90
59307;DHT22;47983;53.016;-2.260;2022-12-24T10:57:40;6.60;99.90
59307;DHT22;47983;53.016;-2.260;2022-12-24T11:00:19;6.70;99.90
59307;DHT22;47983;53.016;-2.260;2022-12-24T11:02:48;6.70;99.90
59307;DHT22;47983;53.016;-2.260;2022-12-24T11:05:32;6.80;99.90
59307;DHT22;47983;53.016;-2.260;2022-12-24T11:08:15;6.90;99.90
59307;DHT22;47983;53.016;-2.260;2022-12-24T11:10:56;7.00;99.90
59307;DHT22;47983;53.016;-2.260;2022-12-24T11:13:38;7.10;99.90
59307;DHT22;47983;53.016;-2.260;2022-12-24T11:18:54;7.40;99.90
59307;DHT22;47983;53.016;-2.260;2022-12-24T11:21:27;7.50;99.90
59307;DHT22;47983;53.016;-2.260;2022-12-24T11:23:58;7.60;99.90
59307;DHT22;47983;53.016;-2.260;2022-12-24T11:26:29;7.80;99.90
59307;DHT22;47983;53.016;-2.260;2022-12-24T11:29:27;7.80;99.90
59307;DHT22;47983;53.016;-2.260;2022-12-24T11:32:15;8.00;99.90
59307;DHT22;47983;53.016;-2.260;2022-12-24T11:34:44;8.20;99.90
59307;DHT22;47983;53.016;-2.260;2022-12-24T11:37:21;8.40;99.90
59307;DHT22;47983;53.016;-2.260;2022-12-24T11:39:53;8.50;99.90
59307;DHT22;47983;53.016;-2.260;2022-12-24T11:42:33;8.70;99.90
59307;DHT22;47983;53.016;-2.260;2022-12-24T11:45:27;8.80;99.90
59307;DHT22;47983;53.016;-2.260;2022-12-24T11:47:56;8.80;99.90
59307;DHT22;47983;53.016;-2.260;2022-12-24T11:50:33;8.80;99.90
59307;DHT22;47983;53.016;-2.260;2022-12-24T11:55:39;9.00;99.90
59307;DHT22;47983;53.016;-2.260;2022-12-24T11:58:43;9.30;99.90
59307;DHT22;47983;53.016;-2.260;2022-12-24T12:01:23;9.50;99.90
59307;DHT22;47983;53.016;-2.260;2022-12-24T12:03:54;9.80;99.90
59307;DHT22;47983;53.016;-2.260;2022-12-24T12:08:56;10.00;99.90
59307;DHT22;47983;53.016;-2.260;2022-12-24T12:11:27;10.20;99.90
59307;DHT22;47983;53.016;-2.260;2022-12-24T12:13:58;10.30;99.90
59307;DHT22;47983;53.016;-2.260;2022-12-24T12:19:35;10.60;99.90
59307;DHT22;47983;53.016;-2.260;2022-12-24T12:22:06;10.70;99.90
59307;DHT22;47983;53.016;-2.260;2022-12-24T12:24:43;10.70;99.90
59307;DHT22;47983;53.016;-2.260;2022-12-24T12:27:20;10.80;99.90
59307;DHT22;47983;53.016;-2.260;2022-12-24T12:29:57;10.90;99.90
59307;DHT22;47983;53.016;-2.260;2022-12-24T12:32:35;10.80;99.90
59307;DHT22;47983;53.016;-2.260;2022-12-24T12:37:50;10.60;99.90
59307;DHT22;47983;53.016;-2.260;2022-12-24T12:40:19;10.40;99.90
59307;DHT22;47983;53.016;-2.260;2022-12-24T12:43:08;10.10;99.90
59307;DHT22;47983;53.016;-2.260;2022-12-24T12:45:57;9.70;99.90
59307;DHT22;47983;53.016;-2.260;2022-12-24T12:48:48;9.40;99.90
59307;DHT22;47983;53.016;-2.260;2022-12-24T12:52:10;9.10;99.90
59307;DHT22;47983;53.016;-2.260;2022-12-24T12:57:11;8.50;99.90
59307;DHT22;47983;53.016;-2.260;2022-12-24T12:59:43;8.30;99.90
59307;DHT22;47983;53.016;-2.260;2022-12-24T13:05:05;8.40;99.90
59307;DHT22;47983;53.016;-2.260;2022-12-24T13:08:00;8.30;99.90
59307;DHT22;47983;53.016;-2.260;2022-12-24T13:10:57;8.10;99.90
59307;DHT22;47983;53.016;-2.260;2022-12-24T13:13:41;8.00;99.90
59307;DHT22;47983;53.016;-2.260;2022-12-24T13:16:47;7.80;99.90
59307;DHT22;47983;53.016;-2.260;2022-12-24T13:19:32;7.70;99.90
59307;DHT22;47983;53.016;-2.260;2022-12-24T13:22:14;7.60;99.90
59307;DHT22;47983;53.016;-2.260;2022-12-24T13:24:51;7.60;99.90
59307;DHT22;47983;53.016;-2.260;2022-12-24T13:27:30;7.50;99.90
59307;DHT22;47983;53.016;-2.260;2022-12-24T13:32:51;7.60;99.90
59307;DHT22;47983;53.016;-2.260;2022-12-24T13:37:47;7.70;99.90
59307;DHT22;47983;53.016;-2.260;2022-12-24T13:40:26;7.80;99.90
59307;DHT22;47983;53.016;-2.260;2022-12-24T13:50:51;8.10;99.90
59307;DHT22;47983;53.016;-2.260;2022-12-24T13:58:43;8.10;99.90
59307;DHT22;47983;53.016;-2.260;2022-12-24T14:01:19;8.10;99.90
59307;DHT22;47983;53.016;-2.260;2022-12-24T14:03:54;8.30;99.90
59307;DHT22;47983;53.016;-2.260;2022-12-24T14:06:34;8.60;99.90
59307;DHT22;47983;53.016;-2.260;2022-12-24T14:09:10;8.70;99.90
59307;DHT22;47983;53.016;-2.260;2022-12-24T14:14:38;8.60;99.90
59307;DHT22;47983;53.016;-2.260;2022-12-24T14:17:21;8.50;99.90
59307;DHT22;47983;53.016;-2.260;2022-12-24T14:19:59;8.40;99.90
59307;DHT22;47983;53.016;-2.260;2022-12-24T14:22:41;8.40;99.90
59307;DHT22;47983;53.016;-2.260;2022-12-24T14:25:20;8.40;99.90
59307;DHT22;47983;53.016;-2.260;2022-12-24T14:27:57;8.30;99.90
59307;DHT22;47983;53.016;-2.260;2022-12-24T14:30:27;8.30;99.90
59307;DHT22;47983;53.016;-2.260;2022-12-24T14:32:55;8.20;99.90
59307;DHT22;47983;53.016;-2.260;2022-12-24T14:35:26;8.30;99.90
59307;DHT22;47983;53.016;-2.260;2022-12-24T14:38:04;8.20;99.90
59307;DHT22;47983;53.016;-2.260;2022-12-24T14:46:45;8.10;99.90
59307;DHT22;47983;53.016;-2.260;2022-12-24T14:51:55;8.10;99.90
59307;DHT22;47983;53.016;-2.260;2022-12-24T14:54:30;8.10;99.90
59307;DHT22;47983;53.016;-2.260;2022-12-24T14:57:22;8.00;99.90
59307;DHT22;47983;53.016;-2.260;2022-12-24T14:59:54;8.00;99.90
59307;DHT22;47983;53.016;-2.260;2022-12-24T15:02:48;8.00;99.90
59307;DHT22;47983;53.016;-2.260;2022-12-24T15:05:25;7.90;99.90
59307;DHT22;47983;53.016;-2.260;2022-12-24T15:13:45;7.80;99.90
59307;DHT22;47983;53.016;-2.260;2022-12-24T15:15:54;7.80;99.90
59307;DHT22;47983;53.016;-2.260;2022-12-24T15:18:31;7.70;99.90
59307;DHT22;47983;53.016;-2.260;2022-12-24T15:21:02;7.70;99.90
59307;DHT22;47983;53.016;-2.260;2022-12-24T15:23:36;7.70;99.90
59307;DHT22;47983;53.016;-2.260;2022-12-24T15:26:29;7.60;99.90
59307;DHT22;47983;53.016;-2.260;2022-12-24T15:28:57;7.60;99.90
59307;DHT22;47983;53.016;-2.260;2022-12-24T15:31:30;7.50;99.90
59307;DHT22;47983;53.016;-2.260;2022-12-24T15:33:58;7.50;99.90
59307;DHT22;47983;53.016;-2.260;2022-12-24T15:36:33;7.50;99.90
59307;DHT22;47983;53.016;-2.260;2022-12-24T15:39:13;7.50;99.90
59307;DHT22;47983;53.016;-2.260;2022-12-24T15:41:44;7.50;99.90
59307;DHT22;47983;53.016;-2.260;2022-12-24T15:44:35;7.40;99.90
59307;DHT22;47983;53.016;-2.260;2022-12-24T15:47:06;7.40;99.90
59307;DHT22;47983;53.016;-2.260;2022-12-24T15:49:35;7.30;99.90
59307;DHT22;47983;53.016;-2.260;2022-12-24T15:52:06;7.30;99.90
59307;DHT22;47983;53.016;-2.260;2022-12-24T15:54:34;7.30;99.90
59307;DHT22;47983;53.016;-2.260;2022-12-24T15:57:23;7.30;99.90
59307;DHT22;47983;53.016;-2.260;2022-12-24T15:59:55;7.30;99.90
59307;DHT22;47983;53.016;-2.260;2022-12-24T16:02:39;7.30;99.90
59307;DHT22;47983;53.016;-2.260;2022-12-24T16:05:31;7.30;99.90
59307;DHT22;47983;53.016;-2.260;2022-12-24T16:10:53;7.20;99.90
59307;DHT22;47983;53.016;-2.260;2022-12-24T16:13:32;7.20;99.90
59307;DHT22;47983;53.016;-2.260;2022-12-24T16:16:13;7.20;99.90
59307;DHT22;47983;53.016;-2.260;2022-12-24T16:18:45;7.20;99.90
59307;DHT22;47983;53.016;-2.260;2022-12-24T16:21:29;7.10;99.90
59307;DHT22;47983;53.016;-2.260;2022-12-24T16:24:04;7.10;99.90
59307;DHT22;47983;53.016;-2.260;2022-12-24T16:26:34;7.10;99.90
59307;DHT22;47983;53.016;-2.260;2022-12-24T16:29:01;7.10;99.90
59307;DHT22;47983;53.016;-2.260;2022-12-24T16:34:12;7.10;99.90
59307;DHT22;47983;53.016;-2.260;2022-12-24T16:36:44;7.10;99.90
59307;DHT22;47983;53.016;-2.260;2022-12-24T16:39:15;7.10;99.90
59307;DHT22;47983;53.016;-2.260;2022-12-24T16:41:54;7.10;99.90
59307;DHT22;47983;53.016;-2.260;2022-12-24T16:44:41;7.20;99.90
59307;DHT22;47983;53.016;-2.260;2022-12-24T16:47:21;7.20;99.90
59307;DHT22;47983;53.016;-2.260;2022-12-24T16:49:49;7.20;99.90
59307;DHT22;47983;53.016;-2.260;2022-12-24T16:52:23;7.20;99.90
59307;DHT22;47983;53.016;-2.260;2022-12-24T16:54:52;7.30;99.90
59307;DHT22;47983;53.016;-2.260;2022-12-24T16:57:22;7.20;99.90
59307;DHT22;47983;53.016;-2.260;2022-12-24T16:59:51;7.30;99.90
59307;DHT22;47983;53.016;-2.260;2022-12-24T17:02:20;7.30;99.90
59307;DHT22;47983;53.016;-2.260;2022-12-24T17:04:49;7.30;99.90
59307;DHT22;47983;53.016;-2.260;2022-12-24T17:07:19;7.20;99.90
59307;DHT22;47983;53.016;-2.260;2022-12-24T17:09:47;7.20;99.90
59307;DHT22;47983;53.016;-2.260;2022-12-24T17:12:15;7.20;99.90
59307;DHT22;47983;53.016;-2.260;2022-12-24T17:14:43;7.20;99.90
59307;DHT22;47983;53.016;-2.260;2022-12-24T17:17:29;7.20;99.90
59307;DHT22;47983;53.016;-2.260;2022-12-24T17:19:57;7.20;99.90
59307;DHT22;47983;53.016;-2.260;2022-12-24T17:22:25;7.20;99.90
59307;DHT22;47983;53.016;-2.260;2022-12-24T17:24:56;7.10;99.90
59307;DHT22;47983;53.016;-2.260;2022-12-24T17:27:24;7.10;99.90
59307;DHT22;47983;53.016;-2.260;2022-12-24T17:29:51;7.20;99.90
59307;DHT22;47983;53.016;-2.260;2022-12-24T17:32:19;7.20;99.90
59307;DHT22;47983;53.016;-2.260;2022-12-24T17:34:47;7.20;99.90
59307;DHT22;47983;53.016;-2.260;2022-12-24T17:37:15;7.30;99.90
59307;DHT22;47983;53.016;-2.260;2022-12-24T17:39:43;7.20;99.90
59307;DHT22;47983;53.016;-2.260;2022-12-24T17:42:10;7.30;99.90
59307;DHT22;47983;53.016;-2.260;2022-12-24T17:44:38;7.30;99.90
59307;DHT22;47983;53.016;-2.260;2022-12-24T17:47:06;7.30;99.90
59307;DHT22;47983;53.016;-2.260;2022-12-24T17:49:33;7.30;99.90
59307;DHT22;47983;53.016;-2.260;2022-12-24T17:52:01;7.30;99.90
59307;DHT22;47983;53.016;-2.260;2022-12-24T17:54:30;7.40;99.90
59307;DHT22;47983;53.016;-2.260;2022-12-24T17:56:58;7.40;99.90